Time;durP1;ratioP1;P1;durP2;ratioP2;P2;SDS_P1;SDS_P2;PMS_P1;PMS_P2;Temp;Humidity;BMP_temperature;BMP_pressure;BME280_temperature;BME280_humidity;BME280_pressure;Samples;Min_cycle;Max_cycle;Signal;HPM_P1;HPM_P2
2023/09/12 00:00:07;;;;;;;22.38;19.98;;;;;;;22.05;100.00;101199.09;5170629;28;20034;-70
2023/09/12 00:02:38;;;;;;;22.80;18.65;;;;;;;22.00;100.00;101183.56;5171075;28;20109;-71
2023/09/12 00:05:10;;;;;;;21.25;19.00;;;;;;;21.93;100.00;101198.53;5170175;28;20454;-71
2023/09/12 00:07:42;;;;;;;24.38;20.50;;;;;;;22.16;100.00;101202.47;5170290;28;20023;-71
2023/09/12 00:10:13;;;;;;;22.08;19.73;;;;;;;21.82;100.00;101193.50;5171089;28;20030;-72
2023/09/12 00:12:44;;;;;;;22.83;20.20;;;;;;;21.71;100.00;101187.38;5170675;28;20031;-72
2023/09/12 00:15:16;;;;;;;22.13;19.52;;;;;;;22.00;100.00;101206.72;5170271;28;20035;-72
2023/09/12 00:17:50;;;;;;;22.20;19.90;;;;;;;21.93;100.00;101193.19;5169813;28;20034;-72
2023/09/12 00:20:21;;;;;;;;;;;;;;;22.57;100.00;101205.25;5170434;28;20043;-72
2023/09/12 00:22:54;;;;;;;21.20;19.13;;;;;;;21.68;100.00;101206.34;5181043;28;19925;-72
2023/09/12 00:25:25;;;;;;;23.15;20.27;;;;;;;21.72;100.00;101206.88;5155841;28;20038;-72
2023/09/12 00:27:57;;;;;;;22.63;19.83;;;;;;;21.61;100.00;101207.97;5156525;28;20035;-72
2023/09/12 00:30:28;;;;;;;21.40;19.20;;;;;;;21.66;100.00;101204.84;5168189;28;20097;-72
2023/09/12 00:32:59;;;;;;;22.75;20.35;;;;;;;21.62;100.00;101212.31;5171276;28;20053;-72
2023/09/12 00:35:30;;;;;;;26.20;19.15;;;;;;;21.68;100.00;101206.34;5164396;28;20164;-73
2023/09/12 00:38:02;;;;;;;21.52;19.35;;;;;;;21.48;100.00;101206.56;5166399;28;20035;-71
2023/09/12 00:40:33;;;;;;;20.50;18.50;;;;;;;21.62;100.00;101199.84;5171769;28;20707;-72
2023/09/12 00:43:05;;;;;;;20.88;18.67;;;;;;;21.50;100.00;101203.75;5173024;28;20069;-72
2023/09/12 00:45:37;;;;;;;19.98;17.90;;;;;;;21.73;100.00;101203.22;5173129;28;20082;-72
2023/09/12 00:48:09;;;;;;;22.08;18.52;;;;;;;21.38;100.00;101200.50;5172834;28;20110;-72
2023/09/12 00:50:42;;;;;;;22.02;19.80;;;;;;;21.48;100.00;101201.25;5159515;28;20031;-72
2023/09/12 00:53:15;;;;;;;23.50;20.83;;;;;;;21.41;100.00;101194.84;5171304;28;20031;-72
2023/09/12 00:55:53;;;;;;;22.88;20.17;;;;;;;21.55;100.00;101200.59;5172749;28;20085;-72
2023/09/12 00:58:27;;;;;;;26.40;19.60;;;;;;;21.34;100.00;101191.13;5182333;28;20026;-72
2023/09/12 01:00:58;;;;;;;26.23;21.30;;;;;;;21.22;100.00;101194.06;5172423;28;20049;-71
2023/09/12 01:03:30;;;;;;;23.73;19.50;;;;;;;21.20;100.00;101193.38;5172248;28;20298;-71
2023/09/12 01:06:02;;;;;;;22.25;19.10;;;;;;;21.15;100.00;101190.34;5172339;28;20050;-72
2023/09/12 01:08:37;;;;;;;22.53;20.23;;;;;;;21.22;100.00;101195.88;5162744;28;20490;-72
2023/09/12 01:11:08;;;;;;;26.27;21.00;;;;;;;21.01;100.00;101189.06;5172255;28;20117;-71
2023/09/12 01:13:40;;;;;;;25.48;20.35;;;;;;;21.14;100.00;101180.66;5172924;28;20717;-71
2023/09/12 01:16:11;;;;;;;21.73;19.53;;;;;;;21.37;100.00;101183.69;5172255;28;20445;-71
2023/09/12 01:18:43;;;;;;;22.23;19.92;;;;;;;21.08;100.00;101181.28;5172430;28;20045;-71
2023/09/12 01:21:43;;;;;;;26.98;19.60;;;;;;;21.15;100.00;101183.16;5171957;28;20034;-72
2023/09/12 01:24:38;;;;;;;20.77;18.67;;;;;;;21.47;100.00;101188.91;5164707;28;20035;-72
2023/09/12 01:27:21;;;;;;;21.90;19.70;;;;;;;21.23;100.00;101174.41;5163406;28;20050;-72
2023/09/12 01:29:57;;;;;;;21.00;18.80;;;;;;;20.96;100.00;101186.84;5164900;28;20078;-72
2023/09/12 01:32:31;;;;;;;22.70;20.60;;;;;;;21.05;100.00;101179.75;5171448;28;20046;-72
2023/09/12 01:35:03;;;;;;;22.23;19.98;;;;;;;21.03;100.00;101176.44;5171958;28;20062;-71
2023/09/12 01:37:34;;;;;;;23.17;19.05;;;;;;;20.90;100.00;101179.44;5170767;28;20037;-71
2023/09/12 01:40:07;;;;;;;24.17;20.30;;;;;;;20.85;100.00;101179.91;5163144;28;20031;-72
2023/09/12 01:42:44;;;;;;;21.37;19.03;;;;;;;20.93;100.00;101179.13;5171766;28;20143;-71
2023/09/12 01:45:17;;;;;;;23.13;20.23;;;;;;;20.78;100.00;101185.00;5170905;28;20038;-72
2023/09/12 01:47:50;;;;;;;24.30;20.07;;;;;;;21.07;100.00;101182.28;5157474;28;20027;-71
2023/09/12 01:50:22;;;;;;;23.57;20.60;;;;;;;20.98;100.00;101179.53;5171803;28;20074;-72
2023/09/12 01:52:53;;;;;;;23.60;20.93;;;;;;;20.76;100.00;101186.97;5169538;28;20419;-71
2023/09/12 01:55:25;;;;;;;20.73;18.60;;;;;;;21.07;100.00;101183.09;5170381;28;20054;-72
2023/09/12 01:57:57;;;;;;;21.43;19.07;;;;;;;21.12;100.00;101186.13;5171554;28;20035;-72
2023/09/12 02:00:29;;;;;;;23.30;18.60;;;;;;;21.03;100.00;101193.22;5169243;28;20027;-72
2023/09/12 02:03:01;;;;;;;22.03;18.87;;;;;;;20.89;100.00;101188.41;5171029;28;20031;-73
2023/09/12 02:05:33;;;;;;;22.40;19.63;;;;;;;20.99;100.00;101185.69;5171306;28;20466;-71
2023/09/12 02:08:05;;;;;;;21.70;19.47;;;;;;;20.77;100.00;101172.66;5169396;28;20027;-73
2023/09/12 02:10:36;;;;;;;22.13;19.70;;;;;;;20.80;100.00;101176.84;5170048;28;20026;-73
2023/09/12 02:13:07;;;;;;;21.53;19.27;;;;;;;20.68;100.00;101173.59;5171009;28;21664;-71
2023/09/12 02:15:39;;;;;;;24.03;18.23;;;;;;;20.91;100.00;101171.28;5170975;28;20034;-71
2023/09/12 02:18:10;;;;;;;25.53;20.07;;;;;;;20.74;100.00;101178.28;5170328;28;20022;-72
2023/09/12 02:20:45;;;;;;;22.80;20.53;;;;;;;20.54;100.00;101167.78;5169783;28;20019;-72
2023/09/12 02:23:17;;;;;;;20.97;18.70;;;;;;;20.84;100.00;101167.56;5169668;28;20034;-71
2023/09/12 02:25:48;;;;;;;22.83;19.97;;;;;;;20.96;100.00;101181.53;5169199;28;20031;-73
2023/09/12 02:28:19;;;;;;;22.67;18.30;;;;;;;20.76;100.00;101175.47;5170516;28;20712;-71
2023/09/12 02:30:51;;;;;;;21.37;18.70;;;;;;;20.61;100.00;101183.16;5170314;28;20026;-71
2023/09/12 02:33:22;;;;;;;23.90;21.40;;;;;;;20.68;100.00;101178.91;5171021;28;20667;-71
2023/09/12 02:35:53;;;;;;;22.53;20.10;;;;;;;20.80;100.00;101176.84;5170466;28;20031;-71
2023/09/12 02:38:24;;;;;;;23.40;20.30;;;;;;;20.53;100.00;101182.06;5168566;28;20070;-72
2023/09/12 02:40:56;;;;;;;24.30;21.10;;;;;;;20.46;100.00;101180.13;5169503;28;20126;-72
2023/09/12 02:43:27;;;;;;;28.00;21.03;;;;;;;20.61;100.00;101178.69;5170585;28;20704;-72
2023/09/12 02:45:58;;;;;;;25.57;21.70;;;;;;;20.45;100.00;101176.66;5170883;28;20031;-72
2023/09/12 02:48:30;;;;;;;24.50;21.70;;;;;;;20.70;100.00;101176.91;5169153;28;20082;-72
2023/09/12 02:51:01;;;;;;;26.67;21.87;;;;;;;20.46;100.00;101165.03;5168504;28;20477;-72
2023/09/12 02:53:32;;;;;;;25.53;21.77;;;;;;;20.70;100.00;101176.91;5170193;28;20066;-72
2023/09/12 02:56:04;;;;;;;23.10;20.70;;;;;;;20.53;100.00;101176.75;5170354;28;20121;-73
2023/09/12 02:58:35;;;;;;;22.37;20.03;;;;;;;20.64;100.00;101172.19;5168922;28;20058;-72
2023/09/12 03:01:06;;;;;;;23.00;20.57;;;;;;;20.73;100.00;101176.63;5170152;28;20042;-73
2023/09/12 03:03:38;;;;;;;23.47;20.83;;;;;;;20.68;100.00;101173.59;5165625;28;20042;-72
2023/09/12 03:06:09;;;;;;;24.53;20.27;;;;;;;20.43;100.00;101173.31;5161037;28;20046;-72
2023/09/12 03:08:41;;;;;;;23.93;21.33;;;;;;;20.59;100.00;101185.97;5168253;28;20513;-73
2023/09/12 03:11:12;;;;;;;26.77;21.57;;;;;;;20.45;100.00;101179.31;5168834;28;20569;-72
2023/09/12 03:13:44;;;;;;;22.57;20.13;;;;;;;20.53;100.00;101187.38;5170709;28;20031;-72
2023/09/12 03:16:15;;;;;;;25.20;20.83;;;;;;;20.41;100.00;101183.25;5170664;28;20174;-72
2023/09/12 03:18:46;;;;;;;23.97;19.60;;;;;;;20.27;100.00;101177.47;5169426;28;20075;-72
2023/09/12 03:21:18;;;;;;;28.80;20.00;;;;;;;20.25;100.00;101168.78;5170014;28;20042;-73
2023/09/12 03:23:49;;;;;;;26.83;22.97;;;;;;;20.14;100.00;101161.03;5167831;28;20033;-73
2023/09/12 03:26:20;;;;;;;23.27;20.83;;;;;;;20.11;100.00;101153.34;5168972;28;20042;-73
2023/09/12 03:28:52;;;;;;;22.77;20.50;;;;;;;19.98;100.00;101158.97;5169962;28;20046;-72
2023/09/12 03:31:23;;;;;;;25.30;21.60;;;;;;;20.21;100.00;101161.25;5169121;28;20643;-73
2023/09/12 03:33:54;;;;;;;24.50;21.50;;;;;;;20.30;100.00;101150.56;5168998;28;20146;-72
2023/09/12 03:36:26;;;;;;;21.73;19.43;;;;;;;20.14;100.00;101161.03;5170127;28;20465;-72
2023/09/12 03:38:57;;;;;;;23.90;19.40;;;;;;;19.93;100.00;101164.72;5155543;28;20043;-72
2023/09/12 03:41:28;;;;;;;24.20;19.77;;;;;;;20.22;100.00;101162.94;5168828;28;20053;-71
2023/09/12 03:44:00;;;;;;;22.63;20.23;;;;;;;20.20;100.00;101157.75;5170589;28;20456;-71
2023/09/12 03:46:31;;;;;;;22.90;20.40;;;;;;;20.02;100.00;101158.50;5171087;28;20058;-71
2023/09/12 03:49:03;;;;;;;22.37;20.17;;;;;;;20.19;100.00;101164.88;5167236;28;20171;-71
2023/09/12 03:51:35;;;;;;;23.80;21.23;;;;;;;20.26;100.00;101169.63;5168232;28;20497;-71
2023/09/12 03:54:06;;;;;;;21.73;19.40;;;;;;;20.27;100.00;101161.50;5160853;28;20065;-71
2023/09/12 03:56:37;;;;;;;23.73;19.63;;;;;;;20.29;100.00;101164.84;5170863;28;20593;-71
2023/09/12 03:59:08;;;;;;;24.90;21.20;;;;;;;19.99;100.00;101164.13;5171597;28;20650;-71
2023/09/12 04:01:40;;;;;;;21.90;19.67;;;;;;;20.11;100.00;101161.31;5170979;28;20062;-73
2023/09/12 04:04:11;;;;;;;29.67;21.83;;;;;;;19.88;100.00;101146.53;5170219;28;20030;-72
2023/09/12 04:06:45;;;;;;;21.87;19.50;;;;;;;20.17;100.00;101152.75;5185235;28;20447;-71
2023/09/12 04:09:16;;;;;;;20.98;18.30;;;;;;;20.28;100.00;101162.34;5173309;28;20066;-72
2023/09/12 04:11:48;;;;;;;23.93;20.70;;;;;;;20.14;100.00;101156.53;5173158;28;20026;-72
2023/09/12 04:14:20;;;;;;;26.53;19.57;;;;;;;20.06;100.00;101153.78;5173480;28;20488;-72
2023/09/12 04:16:52;;;;;;;20.93;18.80;;;;;;;20.24;100.00;101156.50;5173284;28;20078;-71
2023/09/12 04:19:23;;;;;;;22.67;18.93;;;;;;;20.19;100.00;101145.47;5173864;28;20035;-71
2023/09/12 04:21:54;;;;;;;21.10;18.87;;;;;;;20.16;100.00;101137.78;5170848;28;20031;-71
2023/09/12 04:24:26;;;;;;;21.63;18.20;;;;;;;20.13;100.00;101146.88;5173855;28;20098;-72
2023/09/12 04:26:57;;;;;;;21.97;19.77;;;;;;;20.09;100.00;101147.34;5171732;28;20058;-72
2023/09/12 04:29:28;;;;;;;21.33;19.13;;;;;;;20.12;100.00;101145.22;5173137;28;20026;-72
2023/09/12 04:32:01;;;;;;;23.63;19.17;;;;;;;20.26;100.00;101153.69;5173277;28;20030;-72
2023/09/12 04:34:32;;;;;;;25.17;18.90;;;;;;;20.26;100.00;101159.84;5173711;28;20031;-71
2023/09/12 04:37:05;;;;;;;19.93;17.90;;;;;;;20.23;100.00;101159.31;5169948;28;20018;-72
2023/09/12 04:39:36;;;;;;;21.20;19.17;;;;;;;20.19;100.00;101166.75;5172430;28;20034;-72
2023/09/12 04:42:07;;;;;;;20.90;18.70;;;;;;;20.23;100.00;101160.13;5172952;28;20089;-71
2023/09/12 04:44:40;;;;;;;21.60;18.47;;;;;;;20.16;100.00;101153.75;5172287;28;20129;-70
2023/09/12 04:47:12;;;;;;;20.33;18.40;;;;;;;19.91;100.00;101158.72;5172611;28;20030;-71
2023/09/12 04:49:44;;;;;;;18.37;16.47;;;;;;;19.81;100.00;101153.44;5171817;28;20039;-70
2023/09/12 04:52:15;;;;;;;20.87;18.67;;;;;;;20.00;100.00;101160.47;5170586;28;20026;-70
2023/09/12 04:54:46;;;;;;;19.73;17.73;;;;;;;20.11;100.00;101162.13;5163595;28;20046;-71
2023/09/12 04:57:18;;;;;;;21.10;18.93;;;;;;;19.97;100.00;101168.75;5170891;28;20088;-71
2023/09/12 04:59:51;;;;;;;20.63;18.47;;;;;;;20.02;100.00;101169.16;5171693;28;20439;-71
2023/09/12 05:02:23;;;;;;;20.58;18.45;;;;;;;20.05;100.00;101173.38;5171949;28;20321;-71
2023/09/12 05:04:54;;;;;;;24.63;17.73;;;;;;;19.83;100.00;101167.41;5171113;28;20031;-70
2023/09/12 05:07:25;;;;;;;22.13;19.93;;;;;;;19.73;100.00;101172.75;5170793;28;20031;-71
2023/09/12 05:09:57;;;;;;;22.37;19.97;;;;;;;19.77;100.00;101170.66;5171892;28;20138;-70
2023/09/12 05:12:28;;;;;;;20.43;18.03;;;;;;;19.95;100.00;101163.59;5171453;28;20374;-71
2023/09/12 05:15:00;;;;;;;19.63;17.73;;;;;;;20.03;100.00;101176.16;5171227;28;20023;-72
2023/09/12 05:17:31;;;;;;;22.67;19.03;;;;;;;20.16;100.00;101180.34;5170904;28;20023;-72
2023/09/12 05:20:04;;;;;;;22.50;19.37;;;;;;;20.11;100.00;101180.75;5170659;28;20054;-72
2023/09/12 05:22:36;;;;;;;21.15;18.95;;;;;;;19.91;100.00;101172.00;5170582;28;20026;-71
2023/09/12 05:25:07;;;;;;;21.90;19.60;;;;;;;20.05;100.00;101173.38;5170344;28;20041;-71
2023/09/12 05:27:39;;;;;;;22.77;19.57;;;;;;;19.99;100.00;101161.47;5171063;28;20054;-69
2023/09/12 05:30:10;;;;;;;23.23;19.57;;;;;;;19.86;100.00;101148.53;5169973;28;20033;-72
2023/09/12 05:32:42;;;;;;;20.93;18.83;;;;;;;19.88;100.00;101146.53;5170595;28;20544;-71
2023/09/12 05:35:13;;;;;;;22.40;20.00;;;;;;;19.63;100.00;101140.06;5170580;28;20521;-70
2023/09/12 05:37:44;;;;;;;24.70;20.67;;;;;;;19.70;100.00;101134.03;5170382;28;20034;-70
2023/09/12 05:40:15;;;;;;;25.50;21.23;;;;;;;19.80;100.00;101138.47;5171875;28;20093;-69
2023/09/12 05:42:47;;;;;;;23.30;19.63;;;;;;;19.89;100.00;101142.06;5172970;28;20035;-70
2023/09/12 05:45:18;;;;;;;22.53;20.13;;;;;;;19.87;100.00;101152.00;5172925;28;20030;-70
2023/09/12 05:47:50;;;;;;;23.50;19.93;;;;;;;19.79;100.00;101147.44;5172045;28;20041;-70
2023/09/12 05:50:21;;;;;;;24.97;20.87;;;;;;;19.67;100.00;101150.25;5132383;28;1111021;-69
2023/09/12 05:52:53;;;;;;;26.07;21.47;;;;;;;19.77;100.00;101155.56;5169552;28;20031;-69
2023/09/12 05:55:24;;;;;;;23.73;19.67;;;;;;;19.67;100.00;101149.44;5173247;28;20098;-68
2023/09/12 05:57:56;;;;;;;24.33;21.80;;;;;;;19.81;100.00;101159.56;5173784;28;20494;-69
2023/09/12 06:00:28;;;;;;;26.37;20.60;;;;;;;19.65;100.00;101157.56;5173138;28;20027;-69
2023/09/12 06:02:59;;;;;;;23.80;21.30;;;;;;;19.83;100.00;101154.97;5173859;28;20493;-69
2023/09/12 06:05:31;;;;;;;25.47;21.93;;;;;;;19.72;100.00;101168.44;5171202;28;20039;-69
2023/09/12 06:08:04;;;;;;;26.57;23.23;;;;;;;19.68;100.00;101167.03;5172004;28;20502;-69
2023/09/12 06:10:36;;;;;;;25.30;21.17;;;;;;;20.00;100.00;101179.09;5171181;28;20039;-69
2023/09/12 06:13:07;;;;;;;27.50;21.80;;;;;;;19.70;100.00;101122.56;5172924;28;20015;-70
2023/09/12 06:15:38;;;;;;;27.57;21.13;;;;;;;19.99;100.00;101174.75;5173104;28;20019;-69
2023/09/12 06:18:10;;;;;;;25.77;22.23;;;;;;;19.88;100.00;101166.97;5169805;28;20027;-69
2023/09/12 06:20:42;;;;;;;26.83;20.73;;;;;;;20.00;100.00;101179.09;5172657;28;20043;-69
2023/09/12 06:23:13;;;;;;;24.53;21.97;;;;;;;19.92;100.00;101182.47;5171382;28;20030;-69
2023/09/12 06:25:44;;;;;;;27.13;21.93;;;;;;;19.84;100.00;101174.41;5173419;28;20030;-69
2023/09/12 06:28:26;;;;;;;26.70;21.37;;;;;;;19.99;100.00;101168.59;5173199;28;20027;-69
2023/09/12 06:30:58;;;;;;;28.53;22.57;;;;;;;19.80;100.00;101157.91;5172169;28;20041;-69
2023/09/12 06:33:29;;;;;;;23.80;20.73;;;;;;;20.03;100.00;101170.84;5171888;28;20030;-69
2023/09/12 06:36:01;;;;;;;24.10;21.53;;;;;;;20.12;100.00;101179.78;5172463;28;20122;-70
2023/09/12 06:38:32;;;;;;;28.67;24.07;;;;;;;19.95;100.00;101173.38;5172160;28;20037;-70
2023/09/12 06:41:04;;;;;;;27.33;21.50;;;;;;;20.06;100.00;101175.03;5172604;28;20062;-70
2023/09/12 06:43:35;;;;;;;23.70;21.30;;;;;;;19.96;100.00;101180.38;5172951;28;20027;-70
2023/09/12 06:46:06;;;;;;;29.70;23.93;;;;;;;20.09;100.00;101189.88;5172341;28;20058;-70
2023/09/12 06:48:38;;;;;;;24.83;21.23;;;;;;;20.18;100.00;101194.28;5172997;28;20486;-70
2023/09/12 06:51:09;;;;;;;24.77;21.97;;;;;;;19.97;100.00;101190.00;5172308;28;20030;-70
2023/09/12 06:53:40;;;;;;;24.23;21.20;;;;;;;20.14;100.00;101190.28;5171892;28;20102;-70
2023/09/12 06:56:12;;;;;;;26.13;22.47;;;;;;;20.09;100.00;101203.97;5167949;28;20085;-72
2023/09/12 06:58:43;;;;;;;26.13;22.90;;;;;;;20.09;100.00;101200.50;5172233;28;20034;-70
2023/09/12 07:01:14;;;;;;;29.03;23.30;;;;;;;20.24;100.00;101193.72;5172662;28;20027;-69
2023/09/12 07:03:46;;;;;;;24.87;21.87;;;;;;;20.13;100.00;101192.09;5172694;28;20110;-69
2023/09/12 07:06:17;;;;;;;27.57;22.43;;;;;;;20.15;100.00;101198.09;5167180;28;20037;-69
2023/09/12 07:08:49;;;;;;;33.10;23.20;;;;;;;20.37;100.00;101189.88;5172253;28;20031;-69
2023/09/12 07:11:20;;;;;;;28.07;23.03;;;;;;;20.27;100.00;101172.16;5172468;28;20030;-69
2023/09/12 07:13:51;;;;;;;29.30;23.30;;;;;;;20.25;100.00;101158.16;5171004;28;20117;-69
2023/09/12 07:16:23;;;;;;;30.73;24.50;;;;;;;20.38;100.00;101184.41;5171941;28;20031;-69
2023/09/12 07:18:54;;;;;;;29.33;23.07;;;;;;;20.57;100.00;101203.06;5170439;28;20494;-70
2023/09/12 07:21:25;;;;;;;27.87;23.37;;;;;;;20.58;100.00;101204.75;5170482;28;20381;-70
2023/09/12 07:23:57;;;;;;;28.93;23.97;;;;;;;20.76;100.00;101207.41;5170717;28;20058;-69
2023/09/12 07:26:28;;;;;;;29.77;23.20;;;;;;;20.79;100.00;101207.94;5169717;28;20035;-67
2023/09/12 07:29:02;;;;;;;26.27;23.48;;;;;;;20.71;100.00;101205.22;5169858;28;20061;-68
2023/09/12 07:31:33;;;;;;;28.45;22.98;;;;;;;20.63;100.00;101210.44;5170383;28;20377;-67
2023/09/12 07:34:05;;;;;;;25.43;21.83;;;;;;;20.79;100.00;101218.59;5170479;28;20035;-69
2023/09/12 07:36:36;;;;;;;26.73;23.42;;;;;;;20.76;100.00;101210.91;5169978;28;20263;-70
2023/09/12 07:39:07;;;;;;;26.73;22.43;;;;;;;20.76;100.00;101213.56;5171332;28;20042;-70
2023/09/12 07:41:39;;;;;;;26.25;22.48;;;;;;;20.99;100.00;101205.19;5170165;28;20027;-67
2023/09/12 07:44:15;;;;;;;24.13;21.00;;;;;;;21.13;100.00;101200.28;5173478;28;20186;-68
2023/09/12 07:46:46;;;;;;;34.33;23.52;;;;;;;21.32;100.00;101211.75;5171826;28;20025;-68
2023/09/12 07:49:17;;;;;;;24.02;21.25;;;;;;;21.63;100.00;101201.50;5172962;28;20729;-70
2023/09/12 07:51:49;;;;;;;27.08;21.98;;;;;;;21.94;100.00;101199.38;5174935;28;20097;-71
2023/09/12 07:54:20;;;;;;;24.42;21.00;;;;;;;22.54;100.00;101199.41;5175712;28;20060;-71
2023/09/12 07:56:51;;;;;;;24.88;19.63;;;;;;;23.25;100.00;101208.88;5175065;28;20572;-72
2023/09/12 07:59:23;;;;;;;27.02;18.92;;;;;;;23.77;100.00;101206.81;5172946;28;20071;-71
2023/09/12 08:01:54;;;;;;;21.63;16.45;;;;;;;24.10;100.00;101203.19;5175226;28;20027;-70
2023/09/12 08:04:25;;;;;;;21.20;15.77;;;;;;;24.60;100.00;101205.66;5174890;28;20023;-70
2023/09/12 08:06:57;;;;;;;18.42;16.33;;;;;;;25.13;100.00;101213.81;5174586;28;20030;-72
2023/09/12 08:09:52;;;;;;;17.33;15.07;;;;;;;25.95;100.00;101225.81;5175468;28;20126;-72
2023/09/12 08:12:25;;;;;;;16.48;14.38;;;;;;;26.07;100.00;101229.69;5162440;28;20605;-72
2023/09/12 08:14:57;;;;;;;15.13;13.55;;;;;;;25.92;100.00;101242.28;5176299;28;20065;-71
2023/09/12 08:17:28;;;;;;;16.73;13.40;;;;;;;25.56;100.00;101252.66;5178822;28;20019;-72
2023/09/12 08:20:00;;;;;;;17.17;14.95;;;;;;;25.52;100.00;101253.22;5175926;28;20081;-70
2023/09/12 08:22:31;;;;;;;15.57;14.00;;;;;;;25.24;100.00;101242.06;5174676;28;20018;-72
2023/09/12 08:25:03;;;;;;;19.98;14.60;;;;;;;25.01;100.00;101242.91;5174911;28;20031;-71
2023/09/12 08:27:34;;;;;;;17.70;15.48;;;;;;;24.81;100.00;101250.53;5173098;28;20077;-71
2023/09/12 08:30:06;;;;;;;15.10;13.50;;;;;;;24.72;100.00;101254.28;5174459;28;20085;-72
2023/09/12 08:32:43;;;;;;;14.55;13.23;;;;;;;24.46;100.00;101255.41;5174206;28;20101;-74
2023/09/12 08:35:15;;;;;;;15.00;13.45;;;;;;;24.32;100.00;101259.66;5173670;28;20062;-70
2023/09/12 08:37:46;;;;;;;14.50;13.10;;;;;;;24.13;100.00;101275.94;5173366;28;20101;-71
2023/09/12 08:40:17;;;;;;;14.60;12.23;;;;;;;23.97;100.00;101265.25;5173639;28;20038;-71
2023/09/12 08:42:51;;;;;;;15.50;12.80;;;;;;;24.02;100.00;101270.94;5173544;28;20034;-71
2023/09/12 08:45:23;;;;;;;14.35;11.50;;;;;;;23.99;100.00;101272.13;5174276;28;20038;-72
2023/09/12 08:47:56;;;;;;;13.98;11.55;;;;;;;23.91;100.00;101270.28;5174949;28;20031;-71
2023/09/12 08:50:31;;;;;;;12.73;11.43;;;;;;;24.99;100.00;101265.53;5173049;28;20486;-71
2023/09/12 08:53:03;;;;;;;12.30;11.10;;;;;;;25.32;100.00;101265.28;5171811;28;20758;-71
2023/09/12 08:55:35;;;;;;;9.98;9.02;;;;;;;25.57;100.00;101267.72;5174018;28;20544;-73
2023/09/12 08:58:06;;;;;;;8.27;7.47;;;;;;;26.69;100.00;101258.09;5172251;28;20062;-70
2023/09/12 09:00:38;;;;;;;8.27;6.57;;;;;;;27.11;100.00;101260.19;5173244;28;20022;-70
2023/09/12 09:03:10;;;;;;;9.90;7.68;;;;;;;27.09;100.00;101267.63;5173423;28;20063;-73
2023/09/12 09:05:43;;;;;;;11.50;7.22;;;;;;;26.71;100.00;101277.56;5173383;28;20038;-70
2023/09/12 09:08:15;;;;;;;6.60;5.90;;;;;;;26.34;100.00;101275.69;5172057;28;20053;-72
2023/09/12 09:11:04;;;;;;;6.53;5.80;;;;;;;27.08;100.00;101279.41;5172831;28;20018;-72
2023/09/12 09:13:35;;;;;;;8.45;6.82;;;;;;;28.00;100.00;101255.28;5180006;28;20045;-71
2023/09/12 09:16:14;;;;;;;9.48;6.07;;;;;;;28.78;100.00;101257.03;5172708;28;20018;-71
2023/09/12 09:18:53;;;;;;;15.85;11.30;;;;;;;29.91;100.00;101254.53;5173017;28;20062;-73
2023/09/12 09:21:30;;;;;;;15.90;13.52;;;;;;;30.24;100.00;101246.56;5171486;28;20874;-69
2023/09/12 09:24:06;;;;;;;18.00;13.80;;;;;;;31.31;100.00;101249.63;5168999;28;20042;-72
2023/09/12 09:26:48;;;;;;;14.85;12.65;;;;;;;31.53;100.00;101246.50;5172970;28;20475;-71
2023/09/12 09:29:21;;;;;;;18.02;14.02;;;;;;;30.97;100.00;101246.34;5168799;28;20113;-72
2023/09/12 09:31:52;;;;;;;17.27;15.43;;;;;;;31.68;100.00;101248.84;5176853;28;20033;-71
2023/09/12 09:34:24;;;;;;;19.40;15.90;;;;;;;32.57;100.00;101249.47;5171617;28;20398;-73
2023/09/12 09:36:57;;;;;;;19.75;15.15;;;;;;;33.00;100.00;101241.31;5171796;28;20391;-72
2023/09/12 09:39:34;;;;;;;20.48;16.88;;;;;;;33.12;100.00;101251.38;5172223;28;20058;-73
2023/09/12 09:42:10;;;;;;;17.48;15.57;;;;;;;33.45;96.65;101249.97;5171399;28;20051;-73
2023/09/12 09:44:42;;;;;;;18.15;16.17;;;;;;;34.04;78.90;101237.34;5172038;28;20379;-72
2023/09/12 09:47:13;;;;;;;20.77;17.63;;;;;;;33.78;69.53;101244.97;5171688;28;20055;-73
2023/09/12 09:49:45;;;;;;;24.65;16.95;;;;;;;34.04;65.07;101238.19;5171868;28;20521;-72
2023/09/12 09:52:24;;;;;;;22.40;18.15;;;;;;;34.35;57.79;101250.75;5171218;28;20074;-72
2023/09/12 09:54:56;;;;;;;21.75;19.48;;;;;;;33.15;52.88;101245.47;5171575;28;20688;-73
2023/09/12 09:57:27;;;;;;;21.23;19.05;;;;;;;34.97;46.92;101238.22;5170153;28;20215;-72
2023/09/12 09:59:58;;;;;;;21.92;19.67;;;;;;;35.18;44.81;101243.97;5172321;28;20027;-74
2023/09/12 10:02:30;;;;;;;20.65;18.50;;;;;;;35.33;43.09;101250.75;5171426;28;20026;-78
2023/09/12 10:05:05;;;;;;;22.42;17.92;;;;;;;35.53;43.00;101252.91;5169698;28;20046;-71
2023/09/12 10:07:42;;;;;;;20.17;18.20;;;;;;;35.57;42.89;101242.34;5171646;28;20030;-72
2023/09/12 10:10:14;;;;;;;20.63;18.52;;;;;;;35.64;41.44;101250.34;5172078;28;20057;-73
2023/09/12 10:12:51;;;;;;;20.50;17.67;;;;;;;34.83;45.02;101245.88;5171270;28;20038;-75
2023/09/12 10:15:23;;;;;;;19.80;17.80;;;;;;;35.24;42.76;101242.19;5169771;28;20026;-72
2023/09/12 10:17:57;;;;;;;24.40;20.73;;;;;;;35.54;41.77;101240.94;5169942;28;20023;-71
2023/09/12 10:20:38;;;;;;;21.90;19.58;;;;;;;35.36;42.65;101233.91;5170678;28;20035;-73
2023/09/12 10:23:37;;;;;;;20.30;18.20;;;;;;;34.31;43.78;101247.69;5170105;28;20026;-71
2023/09/12 10:26:13;;;;;;;21.83;18.42;;;;;;;33.50;44.98;101238.38;5170902;28;20046;-73
2023/09/12 10:28:46;;;;;;;20.00;17.90;;;;;;;33.08;46.50;101234.69;5171241;28;20031;-71
2023/09/12 10:31:19;;;;;;;18.60;16.25;;;;;;;33.84;44.80;101225.03;5170327;28;20453;-72
2023/09/12 10:33:50;;;;;;;18.42;16.52;;;;;;;33.86;44.76;101225.63;5169465;28;21016;-74
2023/09/12 10:36:25;;;;;;;14.77;13.25;;;;;;;33.85;44.75;101223.94;5166951;28;20038;-71
2023/09/12 10:38:59;;;;;;;20.58;18.38;;;;;;;33.05;47.05;101218.91;5169074;28;20131;-70
2023/09/12 10:41:30;;;;;;;22.02;19.17;;;;;;;32.20;48.87;101236.00;5169888;28;20055;-74
2023/09/12 10:44:08;;;;;;;21.92;19.45;;;;;;;31.88;51.55;101220.72;5168621;28;20061;-72
2023/09/12 10:46:40;;;;;;;21.50;19.23;;;;;;;31.63;51.81;101224.34;5164486;28;20398;-71
2023/09/12 10:49:14;;;;;;;18.20;15.70;;;;;;;32.95;46.31;101223.03;5169835;28;20039;-69
2023/09/12 10:51:47;;;;;;;20.08;17.35;;;;;;;32.28;47.69;101232.97;5167262;28;20023;-69
2023/09/12 10:54:35;;;;;;;21.92;15.80;;;;;;;32.47;47.71;101232.91;5158568;28;20038;-69
2023/09/12 10:57:11;;;;;;;14.55;12.18;;;;;;;31.79;47.65;101233.75;5156645;28;20573;-72
2023/09/12 11:00:04;;;;;;;22.02;18.85;;;;;;;32.05;50.37;101244.53;5170233;28;20018;-69
2023/09/12 11:02:38;;;;;;;14.27;12.57;;;;;;;32.21;46.76;101238.47;5168863;28;20035;-69
2023/09/12 11:05:27;;;;;;;19.08;17.10;;;;;;;32.09;49.32;101237.59;5165729;28;20061;-68
2023/09/12 11:08:01;;;;;;;20.65;18.52;;;;;;;30.81;53.08;101226.88;5169592;28;20042;-68
2023/09/12 11:10:32;;;;;;;20.45;17.77;;;;;;;30.25;57.54;101223.91;5169040;28;20474;-71
2023/09/12 11:13:04;;;;;;;22.33;20.00;;;;;;;30.89;56.05;101204.19;5170001;28;20066;-70
2023/09/12 11:15:39;;;;;;;25.25;22.67;;;;;;;31.06;56.24;101215.28;5170436;28;20034;-69
2023/09/12 11:18:10;;;;;;;17.63;15.60;;;;;;;31.28;50.99;101212.16;5168608;28;20038;-69
2023/09/12 11:20:58;;;;;;;23.85;21.38;;;;;;;30.88;58.62;101219.59;5169449;28;20019;-70
2023/09/12 11:23:31;;;;;;;13.82;12.15;;;;;;;30.60;48.38;101211.88;5170022;28;20490;-70
2023/09/12 11:26:06;;;;;;;;;;;;;;;31.88;51.51;101226.97;5169355;28;20042;-71
2023/09/12 11:28:39;;;;;;;26.30;23.60;;;;;;;31.33;52.44;101219.63;5168955;28;19925;-71